Time;durP1;ratioP1;P1;durP2;ratioP2;P2;SDS_P1;SDS_P2;PMS_P1;PMS_P2;Temp;Humidity;BMP_temperature;BMP_pressure;BME280_temperature;BME280_humidity;BME280_pressure;Samples;Min_cycle;Max_cycle;Signal;HPM_P1;HPM_P2
2021/11/19 00:00:21;;;;;;;12.70;6.20;;;9.80;99.90;;;;;;5031196;28;20803;-68
2021/11/19 00:02:47;;;;;;;7.27;5.50;;;9.80;99.90;;;;;;5031035;28;20422;-71
2021/11/19 00:05:12;;;;;;;7.90;5.83;;;9.80;99.90;;;;;;5029666;28;20422;-71
2021/11/19 00:07:38;;;;;;;8.70;6.20;;;9.80;99.90;;;;;;5016956;28;20182;-67
2021/11/19 00:10:07;;;;;;;10.70;7.20;;;9.90;99.90;;;;;;5010973;28;20196;-68
2021/11/19 00:12:32;;;;;;;7.57;4.97;;;9.80;99.90;;;;;;5011208;28;20164;-68
2021/11/19 00:14:58;;;;;;;7.33;4.73;;;9.80;99.90;;;;;;5011033;28;20398;-67
2021/11/19 00:17:24;;;;;;;9.10;5.60;;;9.80;99.90;;;;;;5011142;28;20634;-68
2021/11/19 00:19:49;;;;;;;8.37;5.40;;;9.90;99.90;;;;;;5010953;28;20222;-67
2021/11/19 00:22:17;;;;;;;14.17;6.50;;;9.90;99.90;;;;;;5011165;28;20205;-68
2021/11/19 00:24:44;;;;;;;8.27;4.93;;;9.90;99.90;;;;;;5010883;28;20212;-67
2021/11/19 00:27:13;;;;;;;12.10;6.00;;;9.90;99.90;;;;;;5011128;28;20430;-68
2021/11/19 00:29:39;;;;;;;11.57;6.57;;;9.90;99.90;;;;;;5010959;28;20803;-67
2021/11/19 00:32:06;;;;;;;8.80;5.57;;;9.90;99.90;;;;;;5012708;28;20499;-68
2021/11/19 00:34:32;;;;;;;6.63;5.30;;;10.00;99.90;;;;;;5014701;28;20498;-68
2021/11/19 00:36:58;;;;;;;11.00;6.33;;;10.00;99.90;;;;;;5014740;28;20794;-67
2021/11/19 00:39:26;;;;;;;7.57;5.67;;;9.90;99.90;;;;;;5014600;28;20897;-69
2021/11/19 00:41:52;;;;;;;7.57;5.17;;;10.00;99.90;;;;;;5014728;28;20924;-67
2021/11/19 00:44:19;;;;;;;9.80;6.10;;;10.00;99.90;;;;;;5014533;28;20427;-68
2021/11/19 00:46:47;;;;;;;8.67;4.90;;;10.00;99.90;;;;;;5014655;28;20410;-68
2021/11/19 00:49:14;;;;;;;8.57;5.93;;;10.00;99.90;;;;;;5014394;28;20417;-69
2021/11/19 00:51:46;;;;;;;7.53;5.70;;;10.00;99.90;;;;;;5014315;28;20465;-68
2021/11/19 00:54:12;;;;;;;10.50;7.60;;;10.00;99.90;;;;;;5014386;28;20488;-68
2021/11/19 00:56:49;;;;;;;7.50;5.97;;;10.00;99.90;;;;;;5014421;28;20987;-69
2021/11/19 00:59:16;;;;;;;9.63;6.67;;;10.00;99.90;;;;;;5014542;28;20207;-69
2021/11/19 01:01:45;;;;;;;8.10;5.60;;;10.00;99.90;;;;;;5014464;28;20411;-68
2021/11/19 01:04:12;;;;;;;8.00;6.80;;;10.00;99.90;;;;;;5014297;28;20963;-68
2021/11/19 01:06:39;;;;;;;8.37;5.90;;;10.00;99.90;;;;;;5014234;28;20411;-69
2021/11/19 01:09:08;;;;;;;9.90;6.63;;;10.10;99.90;;;;;;5014288;28;20407;-68
2021/11/19 01:11:35;;;;;;;13.40;7.00;;;10.10;99.90;;;;;;5014056;28;20463;-67
2021/11/19 01:14:05;;;;;;;11.40;6.40;;;10.10;99.90;;;;;;5014145;28;20752;-67
2021/11/19 01:16:45;;;;;;;11.70;7.83;;;10.10;99.90;;;;;;5014152;28;20856;-68
2021/11/19 01:19:19;;;;;;;10.93;7.23;;;10.10;99.90;;;;;;5014170;28;21010;-69
2021/11/19 01:21:50;;;;;;;13.63;6.20;;;10.10;99.90;;;;;;5014051;28;20864;-67
2021/11/19 01:24:16;;;;;;;11.00;6.50;;;10.10;99.90;;;;;;5014502;28;20407;-68
2021/11/19 01:26:43;;;;;;;9.80;5.80;;;10.10;99.90;;;;;;5013941;28;20493;-67
2021/11/19 01:29:11;;;;;;;9.57;6.60;;;10.10;99.90;;;;;;5012324;28;20495;-67
2021/11/19 01:31:44;;;;;;;7.20;5.00;;;10.10;99.90;;;;;;5013743;28;20461;-68
2021/11/19 01:34:11;;;;;;;7.30;6.27;;;10.10;99.90;;;;;;5013814;28;20771;-68
2021/11/19 01:36:37;;;;;;;9.97;6.00;;;10.10;99.90;;;;;;5013854;28;20410;-68
2021/11/19 01:39:05;;;;;;;8.73;5.50;;;10.10;99.90;;;;;;5013690;28;20482;-68
2021/11/19 01:41:36;;;;;;;9.43;6.23;;;10.10;99.90;;;;;;5013761;28;20415;-68
2021/11/19 01:44:15;;;;;;;8.17;5.10;;;10.20;99.90;;;;;;5012818;28;20408;-69
2021/11/19 01:46:44;;;;;;;12.60;6.40;;;10.20;99.90;;;;;;5013675;28;20403;-68
2021/11/19 01:49:09;;;;;;;9.40;6.80;;;10.20;99.90;;;;;;5013835;28;20424;-67
2021/11/19 01:51:45;;;;;;;11.97;6.80;;;10.20;99.90;;;;;;5013380;28;20517;-68
2021/11/19 01:54:18;;;;;;;8.03;5.87;;;10.20;99.90;;;;;;5013380;28;20201;-66
2021/11/19 01:56:57;;;;;;;7.17;5.13;;;10.20;99.90;;;;;;5013838;28;20396;-67
2021/11/19 01:59:40;;;;;;;8.87;5.50;;;10.20;99.90;;;;;;5013482;28;20436;-68
2021/11/19 02:02:12;;;;;;;9.73;7.47;;;10.20;99.90;;;;;;5013992;28;20835;-68
2021/11/19 02:04:46;;;;;;;11.80;7.33;;;10.30;99.90;;;;;;5012967;28;20432;-69
2021/11/19 02:07:21;;;;;;;7.80;5.30;;;10.30;99.90;;;;;;5013059;28;20448;-66
2021/11/19 02:10:03;;;;;;;9.60;6.70;;;10.30;99.90;;;;;;5012722;28;20450;-66
2021/11/19 02:12:49;;;;;;;8.90;6.73;;;10.30;99.90;;;;;;5013100;28;20403;-68
2021/11/19 02:15:24;;;;;;;10.27;6.67;;;10.30;99.90;;;;;;5012775;28;20403;-67
2021/11/19 02:17:55;;;;;;;8.03;6.03;;;10.40;99.90;;;;;;5012889;28;20413;-66
2021/11/19 02:20:41;;;;;;;9.93;5.80;;;10.40;99.90;;;;;;5013028;28;20462;-68
2021/11/19 02:23:14;;;;;;;6.93;4.97;;;10.40;99.90;;;;;;5012917;28;20407;-68
2021/11/19 02:26:27;;;;;;;8.30;6.53;;;10.40;99.90;;;;;;5012932;28;20901;-67
2021/11/19 02:28:54;;;;;;;7.23;4.47;;;10.40;99.90;;;;;;5010026;28;20460;-68
2021/11/19 02:31:28;;;;;;;7.37;5.30;;;10.40;99.90;;;;;;5012421;28;20458;-68
2021/11/19 02:33:56;;;;;;;9.60;5.10;;;10.40;99.90;;;;;;5012384;28;20404;-70
2021/11/19 02:36:35;;;;;;;8.27;5.37;;;10.50;99.90;;;;;;5012433;28;20422;-67
2021/11/19 02:39:13;;;;;;;8.67;5.17;;;10.50;99.90;;;;;;5012234;28;20426;-68
2021/11/19 02:41:46;;;;;;;9.43;5.40;;;10.50;99.90;;;;;;5012672;28;20427;-66
2021/11/19 02:44:14;;;;;;;6.73;4.27;;;10.50;99.90;;;;;;5012361;28;20486;-68
2021/11/19 02:46:44;;;;;;;11.73;5.87;;;10.50;99.90;;;;;;5012298;28;20905;-68
2021/11/19 02:49:10;;;;;;;8.40;5.70;;;10.60;99.90;;;;;;5012203;28;20423;-67
2021/11/19 02:51:36;;;;;;;9.20;7.13;;;10.60;99.90;;;;;;5012004;28;20454;-66
2021/11/19 02:54:06;;;;;;;8.90;5.07;;;10.60;99.90;;;;;;5011955;28;20164;-68
2021/11/19 02:56:32;;;;;;;7.30;5.40;;;10.60;99.90;;;;;;5011729;28;20415;-68
2021/11/19 02:59:00;;;;;;;8.30;5.60;;;10.60;99.90;;;;;;5012050;28;20408;-66
2021/11/19 03:01:47;;;;;;;7.67;4.90;;;10.60;99.90;;;;;;5010849;28;20168;-66
2021/11/19 03:04:19;;;;;;;8.00;5.83;;;10.60;99.90;;;;;;5011268;28;20914;-67
2021/11/19 03:06:49;;;;;;;6.80;4.80;;;10.70;99.90;;;;;;5011895;28;20501;-66
2021/11/19 03:09:17;;;;;;;9.83;6.17;;;10.70;99.90;;;;;;5011709;28;20453;-68
2021/11/19 03:11:43;;;;;;;8.23;5.70;;;10.70;99.90;;;;;;5011898;28;20842;-67
2021/11/19 03:14:11;;;;;;;8.00;5.30;;;10.70;99.90;;;;;;5011745;28;20490;-67
2021/11/19 03:16:37;;;;;;;9.43;6.53;;;10.70;99.90;;;;;;5011708;28;20842;-67
2021/11/19 03:19:05;;;;;;;6.30;5.07;;;10.80;99.90;;;;;;5011305;28;20423;-67
2021/11/19 03:21:31;;;;;;;9.23;6.00;;;10.80;99.90;;;;;;5011568;28;20486;-66
2021/11/19 03:23:57;;;;;;;6.40;4.27;;;10.80;99.90;;;;;;5011512;28;20411;-67
2021/11/19 03:26:24;;;;;;;7.43;6.07;;;10.80;99.90;;;;;;5011684;28;20407;-68
2021/11/19 03:28:50;;;;;;;11.40;7.10;;;10.80;99.90;;;;;;5011423;28;20469;-67
2021/11/19 03:31:16;;;;;;;8.93;6.20;;;10.80;99.90;;;;;;5011445;28;20969;-68
2021/11/19 03:33:44;;;;;;;7.73;5.43;;;10.80;99.90;;;;;;5011599;28;20168;-67
2021/11/19 03:36:11;;;;;;;9.03;4.93;;;10.90;99.90;;;;;;5011508;28;20879;-67
2021/11/19 03:38:40;;;;;;;10.90;4.70;;;10.90;99.90;;;;;;5011625;28;20443;-69
2021/11/19 03:41:06;;;;;;;7.43;4.23;;;10.90;99.90;;;;;;5011317;28;20442;-67
2021/11/19 03:43:38;;;;;;;5.93;4.23;;;10.90;99.90;;;;;;5011399;28;20649;-68
2021/11/19 03:46:23;;;;;;;5.90;3.90;;;10.90;99.90;;;;;;5011429;28;20407;-68
2021/11/19 03:48:49;;;;;;;9.57;4.70;;;10.90;99.90;;;;;;5011415;28;20437;-68
2021/11/19 03:51:19;;;;;;;7.73;5.50;;;10.90;99.90;;;;;;5011200;28;20446;-67
2021/11/19 03:53:45;;;;;;;7.00;4.50;;;10.90;99.90;;;;;;5011526;28;20581;-68
2021/11/19 03:56:10;;;;;;;9.13;5.93;;;10.90;99.90;;;;;;5011268;28;20454;-67
2021/11/19 03:58:38;;;;;;;6.30;5.23;;;10.90;99.90;;;;;;5011292;28;20211;-67
2021/11/19 04:01:26;;;;;;;6.43;4.77;;;10.90;99.90;;;;;;5011044;28;20199;-67
2021/11/19 04:03:52;;;;;;;3.70;3.27;;;10.90;99.90;;;;;;5010905;28;20407;-67
2021/11/19 04:06:19;;;;;;;7.93;4.13;;;10.90;99.90;;;;;;5011689;28;20415;-67
2021/11/19 04:08:45;;;;;;;7.27;4.23;;;10.90;99.90;;;;;;5015082;28;20426;-69
2021/11/19 04:11:12;;;;;;;8.60;5.03;;;10.90;99.90;;;;;;5015110;28;20459;-67
2021/11/19 04:13:39;;;;;;;10.37;5.67;;;10.90;99.90;;;;;;5015154;28;20191;-67
2021/11/19 04:16:09;;;;;;;7.57;6.30;;;10.90;99.90;;;;;;5015105;28;20499;-67
2021/11/19 04:18:35;;;;;;;7.93;4.00;;;10.90;99.90;;;;;;5015044;28;20425;-68
2021/11/19 04:21:03;;;;;;;8.27;5.27;;;10.90;99.90;;;;;;5014976;28;20423;-68
2021/11/19 04:23:29;;;;;;;8.50;5.20;;;10.90;99.90;;;;;;5015170;28;20433;-71
2021/11/19 04:25:56;;;;;;;9.20;5.00;;;10.80;99.90;;;;;;5015443;28;20905;-69
2021/11/19 04:28:22;;;;;;;8.93;4.90;;;10.80;99.90;;;;;;5015358;28;20419;-68
2021/11/19 04:30:49;;;;;;;6.43;3.90;;;10.80;99.90;;;;;;5014813;28;20467;-68
2021/11/19 04:33:17;;;;;;;7.73;4.37;;;10.80;99.90;;;;;;5014927;28;20172;-69
2021/11/19 04:35:43;;;;;;;5.40;3.77;;;10.80;99.90;;;;;;5014785;28;20467;-69
2021/11/19 04:38:09;;;;;;;7.83;4.13;;;10.80;99.90;;;;;;5014628;28;20490;-68
2021/11/19 04:40:35;;;;;;;7.77;4.17;;;10.80;99.90;;;;;;5014463;28;20280;-69
2021/11/19 04:43:02;;;;;;;6.63;5.27;;;10.80;99.90;;;;;;5015039;28;20180;-67
2021/11/19 04:45:29;;;;;;;7.40;4.43;;;10.80;99.90;;;;;;5014389;28;20410;-68
2021/11/19 04:47:56;;;;;;;7.13;5.23;;;10.80;99.90;;;;;;5014413;28;20774;-67
2021/11/19 04:50:24;;;;;;;10.60;5.37;;;10.80;99.90;;;;;;5014056;28;20453;-68
2021/11/19 04:52:50;;;;;;;9.93;5.93;;;10.80;99.90;;;;;;5014289;28;20415;-69
2021/11/19 04:55:17;;;;;;;7.30;4.97;;;10.80;99.90;;;;;;5014277;28;20404;-68
2021/11/19 04:57:43;;;;;;;7.23;4.10;;;10.80;99.90;;;;;;5014398;28;20499;-67
2021/11/19 05:00:13;;;;;;;8.07;4.43;;;10.80;99.90;;;;;;5014139;28;20463;-69
2021/11/19 05:02:39;;;;;;;8.37;5.40;;;10.80;99.90;;;;;;5014412;28;20181;-68
2021/11/19 05:05:05;;;;;;;10.10;4.73;;;10.80;99.90;;;;;;5014127;28;20442;-68
2021/11/19 05:07:31;;;;;;;11.43;6.00;;;10.80;99.90;;;;;;5014189;28;20446;-68
2021/11/19 05:09:56;;;;;;;10.83;6.73;;;10.80;99.90;;;;;;5013924;28;20538;-68
2021/11/19 05:12:30;;;;;;;11.50;6.77;;;10.80;99.90;;;;;;5014082;28;20184;-68
2021/11/19 05:14:55;;;;;;;9.90;5.50;;;10.80;99.90;;;;;;5014099;28;20567;-68
2021/11/19 05:17:23;;;;;;;10.90;6.40;;;10.80;99.90;;;;;;5013637;28;20494;-67
2021/11/19 05:19:50;;;;;;;9.97;6.73;;;10.80;99.90;;;;;;5012642;28;20236;-67
2021/11/19 05:22:16;;;;;;;14.30;6.57;;;10.80;99.90;;;;;;5013720;28;20873;-66
2021/11/19 05:24:42;;;;;;;7.93;6.20;;;10.80;99.90;;;;;;5013576;28;20898;-67
2021/11/19 05:27:08;;;;;;;14.60;6.90;;;10.80;99.90;;;;;;5013753;28;20498;-69
2021/11/19 05:29:34;;;;;;;11.20;6.30;;;10.80;99.90;;;;;;5013648;28;20506;-67
2021/11/19 05:32:00;;;;;;;13.47;6.27;;;10.80;99.90;;;;;;5013792;28;20195;-68
2021/11/19 05:34:26;;;;;;;10.57;7.43;;;10.80;99.90;;;;;;5013514;28;20954;-68
2021/11/19 05:36:51;;;;;;;10.57;5.70;;;10.80;99.90;;;;;;5013882;28;20266;-68
2021/11/19 05:39:17;;;;;;;10.60;5.57;;;10.90;99.90;;;;;;5013590;28;20430;-68
2021/11/19 05:41:44;;;;;;;8.07;5.30;;;10.90;99.90;;;;;;5013475;28;20198;-67
2021/11/19 05:44:10;;;;;;;8.90;5.00;;;10.90;99.90;;;;;;5013531;28;20419;-68
2021/11/19 05:46:40;;;;;;;9.87;6.27;;;10.90;99.90;;;;;;5013596;28;20407;-68
2021/11/19 05:49:09;;;;;;;7.07;5.40;;;10.90;99.90;;;;;;5013498;28;20490;-68
2021/11/19 05:51:36;;;;;;;13.10;6.30;;;11.00;99.90;;;;;;5013373;28;20458;-68
2021/11/19 05:54:02;;;;;;;6.43;4.87;;;11.00;99.90;;;;;;5013378;28;20406;-68
2021/11/19 05:56:27;;;;;;;7.07;4.17;;;11.00;99.90;;;;;;5013383;28;20418;-70
2021/11/19 05:58:53;;;;;;;9.30;5.60;;;11.00;99.90;;;;;;5011952;28;20407;-69
2021/11/19 06:01:21;;;;;;;12.70;5.10;;;11.00;99.90;;;;;;5013056;28;20545;-70
2021/11/19 06:03:49;;;;;;;8.20;6.27;;;11.00;99.90;;;;;;5012948;28;20187;-68
2021/11/19 06:06:15;;;;;;;8.60;6.03;;;11.10;99.90;;;;;;5013049;28;20407;-68
2021/11/19 06:08:42;;;;;;;12.27;6.40;;;11.10;99.90;;;;;;5013096;28;20412;-67
2021/11/19 06:11:13;;;;;;;8.00;5.17;;;11.10;99.90;;;;;;5012776;28;20481;-67
2021/11/19 06:14:05;;;;;;;10.60;5.77;;;11.10;99.90;;;;;;5017189;28;20505;-69
2021/11/19 06:16:37;;;;;;;10.43;5.70;;;11.10;99.90;;;;;;5021535;28;20425;-69
2021/11/19 06:19:11;;;;;;;7.70;5.13;;;11.20;99.90;;;;;;5015164;28;20427;-68
2021/11/19 06:21:42;;;;;;;9.90;5.17;;;11.20;99.90;;;;;;5012676;28;20415;-68
2021/11/19 06:24:12;;;;;;;7.63;5.33;;;11.20;99.90;;;;;;5012726;28;20418;-69
2021/11/19 06:26:40;;;;;;;8.30;6.47;;;11.20;99.90;;;;;;5012831;28;20412;-70
2021/11/19 06:29:06;;;;;;;10.63;5.70;;;11.20;99.90;;;;;;5023727;28;20406;-70
2021/11/19 06:31:36;;;;;;;6.10;4.57;;;11.30;99.90;;;;;;5030887;28;20846;-69
2021/11/19 06:34:02;;;;;;;11.40;7.50;;;11.30;99.90;;;;;;5032273;28;20468;-67
2021/11/19 06:36:28;;;;;;;9.80;5.33;;;11.30;99.90;;;;;;5032685;28;20489;-70
2021/11/19 06:38:53;;;;;;;8.13;5.77;;;11.30;99.90;;;;;;5031606;28;20190;-68
2021/11/19 06:41:20;;;;;;;7.20;4.40;;;11.30;99.90;;;;;;5032215;28;20172;-70
2021/11/19 06:43:46;;;;;;;7.00;4.07;;;11.30;99.90;;;;;;5021246;28;20780;-69
2021/11/19 06:46:14;;;;;;;8.33;4.20;;;11.40;99.90;;;;;;5012300;28;20417;-67
2021/11/19 06:48:40;;;;;;;4.70;3.40;;;11.40;99.90;;;;;;5028411;28;20453;-68
2021/11/19 06:51:07;;;;;;;5.30;4.00;;;11.40;99.90;;;;;;5026030;28;20463;-68
2021/11/19 06:53:34;;;;;;;5.10;3.67;;;11.40;99.90;;;;;;5012275;28;20415;-70
2021/11/19 06:56:01;;;;;;;5.93;3.80;;;11.40;99.90;;;;;;5012809;28;20450;-68
2021/11/19 06:58:26;;;;;;;7.10;4.83;;;11.40;99.90;;;;;;5012690;28;20810;-74
2021/11/19 07:00:54;;;;;;;11.77;4.87;;;11.40;99.90;;;;;;5012076;28;20430;-69
2021/11/19 07:03:19;;;;;;;6.73;4.53;;;11.30;99.90;;;;;;5012015;28;20165;-69
2021/11/19 07:05:48;;;;;;;5.77;4.60;;;11.40;99.90;;;;;;5014514;28;20459;-70
2021/11/19 07:08:14;;;;;;;6.20;5.13;;;11.40;99.90;;;;;;5029219;28;20176;-69
2021/11/19 07:10:42;;;;;;;5.47;3.90;;;11.40;99.90;;;;;;5032430;28;20476;-69
2021/11/19 07:13:08;;;;;;;6.83;5.07;;;11.50;99.90;;;;;;5031200;28;20464;-67
2021/11/19 07:15:35;;;;;;;6.23;4.30;;;11.50;99.90;;;;;;5031339;28;20434;-69
2021/11/19 07:18:01;;;;;;;6.13;4.47;;;11.40;99.90;;;;;;5031554;28;20402;-68
2021/11/19 07:20:28;;;;;;;7.80;4.93;;;11.40;99.90;;;;;;5031265;28;20449;-68
2021/11/19 07:22:55;;;;;;;3.93;2.63;;;11.50;99.90;;;;;;5031070;28;20550;-69
2021/11/19 07:25:24;;;;;;;5.03;3.37;;;11.50;99.90;;;;;;5031079;28;20413;-68
2021/11/19 07:27:53;;;;;;;4.43;3.80;;;11.50;99.90;;;;;;5030138;28;20480;-68
2021/11/19 07:30:21;;;;;;;8.90;4.27;;;11.50;99.90;;;;;;5031196;28;20493;-68
2021/11/19 07:32:47;;;;;;;3.73;2.53;;;11.50;99.90;;;;;;5031159;28;20492;-68
2021/11/19 07:35:13;;;;;;;5.63;3.20;;;11.60;99.90;;;;;;5031345;28;20438;-68
2021/11/19 07:37:40;;;;;;;4.77;2.80;;;11.50;99.90;;;;;;5031242;28;20486;-67
2021/11/19 07:40:07;;;;;;;4.70;3.53;;;11.60;99.90;;;;;;5031295;28;20422;-68
2021/11/19 07:42:33;;;;;;;4.27;3.10;;;11.60;99.90;;;;;;5030336;28;20843;-68
2021/11/19 07:44:59;;;;;;;5.17;3.40;;;11.60;99.90;;;;;;5030591;28;20422;-68
2021/11/19 07:47:24;;;;;;;4.90;3.67;;;11.50;99.90;;;;;;5031113;28;20402;-67
2021/11/19 07:49:50;;;;;;;4.93;4.00;;;11.60;99.90;;;;;;5030901;28;20647;-69
2021/11/19 07:52:15;;;;;;;3.97;2.97;;;11.70;99.90;;;;;;5031231;28;20167;-67
2021/11/19 07:54:41;;;;;;;6.60;3.60;;;11.60;99.90;;;;;;5031284;28;20175;-68
2021/11/19 07:57:07;;;;;;;8.10;3.20;;;11.60;99.90;;;;;;5031035;28;20172;-68
2021/11/19 07:59:35;;;;;;;5.17;3.80;;;11.70;99.90;;;;;;5030907;28;20670;-68
2021/11/19 08:02:01;;;;;;;6.27;3.97;;;11.70;99.90;;;;;;5031086;28;20578;-70
2021/11/19 08:04:28;;;;;;;6.27;4.07;;;11.60;99.90;;;;;;5030352;28;20414;-67
2021/11/19 08:06:55;;;;;;;6.10;3.40;;;11.80;99.90;;;;;;5015545;28;20256;-68
2021/11/19 08:09:21;;;;;;;6.50;4.00;;;11.80;99.90;;;;;;5010989;28;20481;-69
2021/11/19 08:11:46;;;;;;;8.90;3.57;;;11.70;99.90;;;;;;5010932;28;20458;-67
2021/11/19 08:14:12;;;;;;;9.00;5.40;;;11.70;99.90;;;;;;5014851;28;20785;-67
2021/11/19 08:16:50;;;;;;;5.87;3.50;;;11.70;99.90;;;;;;5030811;28;20172;-69
2021/11/19 08:19:28;;;;;;;7.17;4.00;;;11.70;99.90;;;;;;5030737;28;20282;-69
2021/11/19 08:21:56;;;;;;;5.27;3.57;;;11.70;99.90;;;;;;5027993;28;20925;-69
2021/11/19 08:24:23;;;;;;;5.83;3.60;;;11.70;99.90;;;;;;5028564;28;20415;-69
2021/11/19 08:26:52;;;;;;;5.60;3.20;;;12.00;99.90;;;;;;5030603;28;20413;-68
2021/11/19 08:29:24;;;;;;;5.13;3.43;;;12.00;99.90;;;;;;5030192;28;20521;-68
2021/11/19 08:31:50;;;;;;;5.37;3.80;;;11.80;99.90;;;;;;5030541;28;20454;-68
2021/11/19 08:34:16;;;;;;;7.10;3.83;;;11.80;99.90;;;;;;5030641;28;20827;-68
2021/11/19 08:36:42;;;;;;;5.70;3.80;;;11.80;99.90;;;;;;5030584;28;20410;-67
2021/11/19 08:39:11;;;;;;;5.83;3.47;;;11.70;99.90;;;;;;5030635;28;20172;-68
2021/11/19 08:41:37;;;;;;;6.00;4.40;;;11.90;99.90;;;;;;5030558;28;20418;-68
2021/11/19 08:44:05;;;;;;;6.90;3.57;;;11.90;99.90;;;;;;5030723;28;20877;-68
2021/11/19 08:46:37;;;;;;;5.73;4.20;;;11.90;99.90;;;;;;5030765;28;20497;-67
2021/11/19 08:49:06;;;;;;;3.60;3.17;;;11.90;99.90;;;;;;5030728;28;20402;-69
2021/11/19 08:51:32;;;;;;;6.10;3.53;;;11.90;99.90;;;;;;5030758;28;21008;-67
2021/11/19 08:54:01;;;;;;;4.33;3.93;;;12.00;99.90;;;;;;5032280;28;20501;-68
2021/11/19 08:56:29;;;;;;;7.70;3.80;;;12.20;99.90;;;;;;5034800;28;20305;-68
2021/11/19 08:58:54;;;;;;;7.30;3.97;;;12.20;99.90;;;;;;5034023;28;21622;-69
2021/11/19 09:01:21;;;;;;;6.70;3.70;;;12.00;99.90;;;;;;5033843;28;20501;-68
2021/11/19 09:03:47;;;;;;;7.60;3.43;;;12.00;99.90;;;;;;5033677;28;20621;-68
2021/11/19 09:06:14;;;;;;;7.30;4.13;;;11.90;99.90;;;;;;5033813;28;20907;-67
2021/11/19 09:08:41;;;;;;;5.07;4.03;;;11.90;99.90;;;;;;5032455;28;20422;-69
2021/11/19 09:11:09;;;;;;;4.10;2.80;;;11.90;99.90;;;;;;5033542;28;20466;-68
2021/11/19 09:13:36;;;;;;;4.00;3.17;;;11.90;99.90;;;;;;5033548;28;20399;-68
2021/11/19 09:16:04;;;;;;;3.33;3.03;;;11.80;99.90;;;;;;5033853;28;20406;-67
2021/11/19 09:18:36;;;;;;;5.23;3.70;;;11.90;99.90;;;;;;5033174;28;20406;-68
2021/11/19 09:21:22;;;;;;;5.83;3.60;;;11.90;99.90;;;;;;5033268;28;20966;-67
2021/11/19 09:23:55;;;;;;;6.03;3.50;;;11.80;99.90;;;;;;5033703;28;20410;-68
2021/11/19 09:26:33;;;;;;;4.80;4.10;;;11.80;99.90;;;;;;5033593;28;20434;-67
2021/11/19 09:29:02;;;;;;;4.60;3.33;;;11.80;99.90;;;;;;5033352;28;20410;-69
2021/11/19 09:31:28;;;;;;;3.80;3.13;;;11.80;99.90;;;;;;5033253;28;20458;-68
2021/11/19 09:33:54;;;;;;;5.13;4.17;;;11.80;99.90;;;;;;5032908;28;20445;-68
2021/11/19 09:36:19;;;;;;;5.37;3.63;;;11.90;99.90;;;;;;5033644;28;20175;-68
2021/11/19 09:38:46;;;;;;;6.07;3.97;;;12.00;99.90;;;;;;5033417;28;20309;-66
2021/11/19 09:41:41;;;;;;;6.23;2.80;;;11.80;99.90;;;;;;5033273;28;20196;-68
2021/11/19 09:44:37;;;;;;;3.13;2.47;;;11.90;99.90;;;;;;5033406;28;20415;-67
2021/11/19 09:47:26;;;;;;;4.43;3.30;;;11.90;99.90;;;;;;5033428;28;20410;-66
2021/11/19 09:50:29;;;;;;;5.50;4.10;;;12.00;99.90;;;;;;5032647;28;20825;-69
2021/11/19 09:53:30;;;;;;;6.30;3.90;;;11.90;99.90;;;;;;5032743;28;20414;-68
2021/11/19 09:56:07;;;;;;;5.40;4.30;;;11.80;99.90;;;;;;5033053;28;20435;-70
2021/11/19 09:58:44;;;;;;;3.97;3.10;;;11.90;99.90;;;;;;5033163;28;20448;-68
2021/11/19 10:01:27;;;;;;;4.60;3.60;;;12.00;99.90;;;;;;5013127;28;20517;-68
2021/11/19 10:04:30;;;;;;;4.70;3.07;;;12.10;99.90;;;;;;5013031;28;20494;-67
2021/11/19 10:07:16;;;;;;;5.83;3.97;;;12.00;99.90;;;;;;5013285;28;20822;-68
2021/11/19 10:10:24;;;;;;;5.53;3.73;;;11.80;99.90;;;;;;5013153;28;20442;-68
2021/11/19 10:13:14;;;;;;;4.50;3.90;;;11.90;99.90;;;;;;5013271;28;20399;-70
2021/11/19 10:16:06;;;;;;;8.53;3.80;;;11.80;99.90;;;;;;5028875;28;20415;-69
2021/11/19 10:19:03;;;;;;;6.13;4.27;;;11.90;99.90;;;;;;5028520;28;20426;-69
2021/11/19 10:22:05;;;;;;;4.67;3.87;;;12.00;99.90;;;;;;5027616;28;20505;-69
2021/11/19 10:25:14;;;;;;;5.00;4.10;;;11.90;99.90;;;;;;5012694;28;20926;-69
2021/11/19 10:27:43;;;;;;;6.80;3.90;;;12.00;99.90;;;;;;4996839;28;20865;-67
2021/11/19 10:30:30;;;;;;;10.37;4.90;;;12.10;99.90;;;;;;5009541;28;20823;-68
2021/11/19 10:33:22;;;;;;;7.00;3.43;;;12.00;99.90;;;;;;5012410;28;20419;-68
2021/11/19 10:36:25;;;;;;;6.67;3.80;;;11.90;99.90;;;;;;5019100;28;20509;-68
2021/11/19 10:39:33;;;;;;;4.40;3.67;;;11.90;99.90;;;;;;5032250;28;20410;-68
2021/11/19 10:42:40;;;;;;;12.67;5.73;;;11.90;99.90;;;;;;5032143;28;20414;-68
2021/11/19 10:45:24;;;;;;;6.67;3.97;;;11.90;99.90;;;;;;5031929;28;20414;-68
2021/11/19 10:48:11;;;;;;;10.67;4.77;;;12.00;99.90;;;;;;5032131;28;20501;-67
2021/11/19 10:51:14;;;;;;;11.67;5.93;;;12.10;99.90;;;;;;5028607;28;20446;-71
2021/11/19 10:54:17;;;;;;;5.77;4.17;;;12.00;99.90;;;;;;5027300;28;20423;-69
2021/11/19 10:56:53;;;;;;;7.37;4.97;;;12.10;99.90;;;;;;5012324;28;20427;-68
2021/11/19 10:59:33;;;;;;;6.37;5.40;;;12.20;99.90;;;;;;5012025;28;20439;-69
2021/11/19 11:02:14;;;;;;;9.70;6.07;;;12.20;99.90;;;;;;5012469;28;20876;-68
2021/11/19 11:04:53;;;;;;;5.77;4.03;;;12.10;99.90;;;;;;5019434;28;20501;-70
2021/11/19 11:07:25;;;;;;;7.23;5.00;;;12.20;99.90;;;;;;5032087;28;20415;-72
2021/11/19 11:10:11;;;;;;;7.53;5.90;;;12.20;99.90;;;;;;5032139;28;20433;-71
2021/11/19 11:12:45;;;;;;;7.23;4.40;;;12.20;99.90;;;;;;5031845;28;20413;-71
2021/11/19 11:15:14;;;;;;;9.90;5.70;;;12.30;99.90;;;;;;5031678;28;20405;-71
2021/11/19 11:18:14;;;;;;;6.90;4.87;;;12.30;99.90;;;;;;5031074;28;20410;-72
2021/11/19 11:21:04;;;;;;;9.77;5.40;;;12.40;99.90;;;;;;5031581;28;20524;-70
2021/11/19 11:23:45;;;;;;;9.80;5.53;;;12.30;99.90;;;;;;5012127;28;20485;-71
2021/11/19 11:26:15;;;;;;;10.97;6.27;;;12.30;99.90;;;;;;5015513;28;20406;-70
2021/11/19 11:28:47;;;;;;;10.20;7.20;;;12.30;99.90;;;;;;5030455;28;20410;-71
2021/11/19 11:31:34;;;;;;;8.53;5.57;;;12.40;99.90;;;;;;5031112;28;20454;-71
2021/11/19 11:34:24;;;;;;;8.50;5.60;;;12.40;99.90;;;;;;5031611;28;20441;-72
2021/11/19 11:37:05;;;;;;;6.93;4.80;;;12.40;99.90;;;;;;5031845;28;20496;-71
2021/11/19 11:39:44;;;;;;;6.13;4.87;;;12.40;99.90;;;;;;5031469;28;20426;-71
2021/11/19 11:42:44;;;;;;;8.37;5.57;;;12.50;99.90;;;;;;5032074;28;20407;-71
2021/11/19 11:45:33;;;;;;;7.10;3.97;;;12.50;99.90;;;;;;5011854;28;20403;-70
2021/11/19 11:48:40;;;;;;;4.90;3.87;;;12.50;99.90;;;;;;5031642;28;20410;-70
2021/11/19 11:51:21;;;;;;;8.17;5.00;;;12.40;99.90;;;;;;5031399;28;20783;-70
2021/11/19 11:54:15;;;;;;;8.30;4.77;;;12.60;99.90;;;;;;5039848;28;20402;-69
2021/11/19 11:56:44;;;;;;;7.17;4.53;;;12.50;99.90;;;;;;5051971;28;20444;-70
2021/11/19 11:59:17;;;;;;;7.57;5.37;;;12.50;99.90;;;;;;5045530;28;20493;-71
2021/11/19 12:01:50;;;;;;;5.83;3.70;;;12.50;99.90;;;;;;5021497;28;20419;-71
2021/11/19 12:04:48;;;;;;;9.37;5.10;;;12.50;99.90;;;;;;5011916;28;20414;-71
2021/11/19 12:07:35;;;;;;;7.17;4.80;;;12.50;99.90;;;;;;5011888;28;20822;-71
2021/11/19 12:10:15;;;;;;;4.90;3.63;;;12.50;99.90;;;;;;5012051;28;20887;-71
2021/11/19 12:12:44;;;;;;;6.90;4.30;;;12.60;99.90;;;;;;5012964;28;20510;-71
2021/11/19 12:15:15;;;;;;;4.97;3.77;;;12.50;99.90;;;;;;5023341;28;20410;-71
2021/11/19 12:17:56;;;;;;;9.30;5.90;;;12.50;99.90;;;;;;5030471;28;20402;-72
2021/11/19 12:20:51;;;;;;;5.30;4.70;;;12.60;99.90;;;;;;5031242;28;20454;-71
2021/11/19 12:23:43;;;;;;;5.53;3.87;;;12.60;99.90;;;;;;5018904;28;20485;-71
2021/11/19 12:26:29;;;;;;;4.53;3.83;;;12.60;99.90;;;;;;5015517;28;20398;-71
2021/11/19 12:29:25;;;;;;;5.43;3.50;;;12.60;99.90;;;;;;5035034;28;20414;-72
2021/11/19 12:32:07;;;;;;;5.27;2.97;;;12.70;99.90;;;;;;5033943;28;20477;-69
2021/11/19 12:34:56;;;;;;;4.30;3.07;;;12.70;99.90;;;;;;5016473;28;20780;-71
2021/11/19 12:37:36;;;;;;;4.80;2.47;;;12.70;99.90;;;;;;5029010;28;20449;-71
2021/11/19 12:40:11;;;;;;;3.87;2.97;;;12.70;99.90;;;;;;5016824;28;20422;-72
2021/11/19 12:42:45;;;;;;;5.87;2.40;;;12.70;99.90;;;;;;5015691;28;20526;-70
2021/11/19 12:45:27;;;;;;;3.50;3.13;;;12.70;99.90;;;;;;5014034;28;20418;-71
2021/11/19 12:48:12;;;;;;;7.57;2.13;;;12.70;99.90;;;;;;5015265;28;20766;-70
2021/11/19 12:50:46;;;;;;;6.00;2.47;;;12.70;99.90;;;;;;5014621;28;20481;-71
2021/11/19 12:53:23;;;;;;;3.07;2.77;;;12.70;99.90;;;;;;5014203;28;20409;-70
2021/11/19 12:56:12;;;;;;;5.40;3.10;;;12.70;99.90;;;;;;5013920;28;20932;-70
2021/11/19 12:58:47;;;;;;;3.97;2.60;;;12.80;99.90;;;;;;5034953;28;20414;-72
2021/11/19 13:01:29;;;;;;;5.93;3.13;;;12.90;99.90;;;;;;5034480;28;20453;-71
2021/11/19 13:04:22;;;;;;;5.40;2.80;;;12.70;99.90;;;;;;5033096;28;20418;-71
2021/11/19 13:07:02;;;;;;;5.00;3.20;;;12.80;99.90;;;;;;5033969;28;20414;-70
2021/11/19 13:09:51;;;;;;;5.60;3.27;;;12.70;99.90;;;;;;5034764;28;20433;-69
2021/11/19 13:12:57;;;;;;;6.17;3.03;;;12.70;99.90;;;;;;5033311;28;20414;-70
2021/11/19 13:15:25;;;;;;;3.63;3.30;;;12.80;99.90;;;;;;5024084;28;20415;-72